sensor_id;sensor_type;location;lat;lon;timestamp;pressure;altitude;pressure_sealevel;temperature;humidity
50394;BME280;36308;46.312;25.288;2023-09-19T00:01:42;96369.34;;;13.73;61.36
50394;BME280;36308;46.312;25.288;2023-09-19T00:04:11;96385.00;;;13.82;61.29
50394;BME280;36308;46.312;25.288;2023-09-19T00:06:38;96352.06;;;13.64;61.30
50394;BME280;36308;46.312;25.288;2023-09-19T00:09:04;96368.78;;;13.71;61.40
50394;BME280;36308;46.312;25.288;2023-09-19T00:11:29;96372.03;;;13.63;61.20
50394;BME280;36308;46.312;25.288;2023-09-19T00:13:56;96367.19;;;13.55;61.19
50394;BME280;36308;46.312;25.288;2023-09-19T00:16:25;96372.59;;;13.55;61.14
50394;BME280;36308;46.312;25.288;2023-09-19T00:18:51;96347.97;;;13.41;61.30
50394;BME280;36308;46.312;25.288;2023-09-19T00:21:16;96349.84;;;13.36;60.98
50394;BME280;36308;46.312;25.288;2023-09-19T00:23:42;96361.22;;;13.43;61.18
50394;BME280;36308;46.312;25.288;2023-09-19T00:26:07;96384.47;;;13.49;61.20
50394;BME280;36308;46.312;25.288;2023-09-19T00:28:33;96373.09;;;13.37;61.07
50394;BME280;36308;46.312;25.288;2023-09-19T00:30:59;96365.19;;;13.25;61.32
50394;BME280;36308;46.312;25.288;2023-09-19T00:33:27;96373.84;;;13.27;61.54
50394;BME280;36308;46.312;25.288;2023-09-19T00:35:56;96360.06;;;13.23;61.25
50394;BME280;36308;46.312;25.288;2023-09-19T00:38:22;96371.16;;;13.32;61.46
50394;BME280;36308;46.312;25.288;2023-09-19T00:40:53;96339.22;;;13.13;61.50
50394;BME280;36308;46.312;25.288;2023-09-19T00:43:19;96374.63;;;13.27;61.30
50394;BME280;36308;46.312;25.288;2023-09-19T00:45:48;96378.94;;;13.23;61.55
50394;BME280;36308;46.312;25.288;2023-09-19T00:48:15;96354.09;;;13.16;61.57
50394;BME280;36308;46.312;25.288;2023-09-19T00:50:42;96345.97;;;13.06;61.63
50394;BME280;36308;46.312;25.288;2023-09-19T00:53:08;96330.84;;;13.00;61.94
50394;BME280;36308;46.312;25.288;2023-09-19T00:55:36;96347.31;;;13.08;61.86
50394;BME280;36308;46.312;25.288;2023-09-19T00:58:02;96327.88;;;13.01;61.87
50394;BME280;36308;46.312;25.288;2023-09-19T01:00:28;96342.47;;;13.05;62.06
50394;BME280;36308;46.312;25.288;2023-09-19T01:02:54;96334.59;;;12.99;61.96
50394;BME280;36308;46.312;25.288;2023-09-19T01:05:20;96318.94;;;12.90;62.10
50394;BME280;36308;46.312;25.288;2023-09-19T01:07:45;96345.13;;;12.95;62.22
50394;BME280;36308;46.312;25.288;2023-09-19T01:10:15;96332.16;;;12.87;62.48
50394;BME280;36308;46.312;25.288;2023-09-19T01:17:57;96312.69;;;12.74;62.75
50394;BME280;36308;46.312;25.288;2023-09-19T01:29:38;96341.53;;;12.74;62.64
50394;BME280;36308;46.312;25.288;2023-09-19T01:32:06;96337.72;;;12.70;62.58
50394;BME280;36308;46.312;25.288;2023-09-19T01:37:17;96340.97;;;12.62;62.91
50394;BME280;36308;46.312;25.288;2023-09-19T01:39:50;96317.13;;;12.43;62.77
50394;BME280;36308;46.312;25.288;2023-09-19T01:48:24;96341.41;;;12.48;63.64
50394;BME280;36308;46.312;25.288;2023-09-19T01:51:02;96324.94;;;12.45;63.69
50394;BME280;36308;46.312;25.288;2023-09-19T01:53:55;96330.09;;;12.46;63.65
50394;BME280;36308;46.312;25.288;2023-09-19T01:59:35;96319.56;;;12.45;63.97
50394;BME280;36308;46.312;25.288;2023-09-19T02:02:03;96320.66;;;12.49;63.97
50394;BME280;36308;46.312;25.288;2023-09-19T02:04:33;96320.38;;;12.45;63.76
50394;BME280;36308;46.312;25.288;2023-09-19T02:07:00;96314.41;;;12.38;64.06
50394;BME280;36308;46.312;25.288;2023-09-19T02:09:26;96312.81;;;12.42;64.25
50394;BME280;36308;46.312;25.288;2023-09-19T02:11:52;96314.69;;;12.42;64.39
50394;BME280;36308;46.312;25.288;2023-09-19T02:14:17;96293.34;;;12.30;64.00
50394;BME280;36308;46.312;25.288;2023-09-19T02:16:45;96309.56;;;12.35;64.67
50394;BME280;36308;46.312;25.288;2023-09-19T02:19:11;96295.22;;;12.34;64.51
50394;BME280;36308;46.312;25.288;2023-09-19T02:21:36;96280.38;;;12.27;64.72
50394;BME280;36308;46.312;25.288;2023-09-19T02:24:02;96291.72;;;12.34;64.92
50394;BME280;36308;46.312;25.288;2023-09-19T02:26:28;96279.31;;;12.28;64.52
50394;BME280;36308;46.312;25.288;2023-09-19T02:28:53;96283.66;;;12.34;64.90
50394;BME280;36308;46.312;25.288;2023-09-19T02:31:19;96279.59;;;12.31;64.66
50394;BME280;36308;46.312;25.288;2023-09-19T02:33:44;96277.19;;;12.35;64.87
50394;BME280;36308;46.312;25.288;2023-09-19T02:36:11;96265.56;;;12.24;64.64
50394;BME280;36308;46.312;25.288;2023-09-19T02:38:37;96278.25;;;12.29;64.56
50394;BME280;36308;46.312;25.288;2023-09-19T02:41:02;96292.28;;;12.31;64.32
50394;BME280;36308;46.312;25.288;2023-09-19T02:43:28;96270.91;;;12.19;64.17
50394;BME280;36308;46.312;25.288;2023-09-19T02:45:54;96267.41;;;12.19;63.33
50394;BME280;36308;46.312;25.288;2023-09-19T02:48:20;96274.94;;;12.17;63.86
50394;BME280;36308;46.312;25.288;2023-09-19T02:50:49;96278.69;;;12.16;63.87
50394;BME280;36308;46.312;25.288;2023-09-19T02:53:14;96264.66;;;12.08;63.74
50394;BME280;36308;46.312;25.288;2023-09-19T02:55:40;96262.75;;;12.09;64.09
50394;BME280;36308;46.312;25.288;2023-09-19T02:58:07;96243.59;;;12.00;63.93
50394;BME280;36308;46.312;25.288;2023-09-19T03:00:39;96256.81;;;12.07;64.20
50394;BME280;36308;46.312;25.288;2023-09-19T03:03:07;96248.44;;;12.03;64.70
50394;BME280;36308;46.312;25.288;2023-09-19T03:05:34;96272.75;;;12.08;64.61
50394;BME280;36308;46.312;25.288;2023-09-19T03:08:00;96254.38;;;12.05;64.81
50394;BME280;36308;46.312;25.288;2023-09-19T03:10:29;96253.28;;;12.01;64.58
50394;BME280;36308;46.312;25.288;2023-09-19T03:12:55;96237.91;;;11.91;64.64
50394;BME280;36308;46.312;25.288;2023-09-19T03:15:20;96234.38;;;11.91;64.75
50394;BME280;36308;46.312;25.288;2023-09-19T03:17:47;96240.91;;;12.00;64.70
50394;BME280;36308;46.312;25.288;2023-09-19T03:20:14;96215.47;;;11.86;64.95
50394;BME280;36308;46.312;25.288;2023-09-19T03:22:43;96244.94;;;11.98;64.75
50394;BME280;36308;46.312;25.288;2023-09-19T03:25:08;96239.75;;;11.91;65.04
50394;BME280;36308;46.312;25.288;2023-09-19T03:27:35;96245.69;;;11.93;65.02
50394;BME280;36308;46.312;25.288;2023-09-19T03:30:01;96229.72;;;11.86;65.24
50394;BME280;36308;46.312;25.288;2023-09-19T03:32:31;96237.09;;;11.96;65.26
50394;BME280;36308;46.312;25.288;2023-09-19T03:34:57;96219.75;;;11.82;64.92
50394;BME280;36308;46.312;25.288;2023-09-19T03:37:23;96230.00;;;11.85;64.97
50394;BME280;36308;46.312;25.288;2023-09-19T03:39:48;96239.00;;;11.96;65.33
50394;BME280;36308;46.312;25.288;2023-09-19T03:42:13;96228.47;;;11.94;65.25
50394;BME280;36308;46.312;25.288;2023-09-19T03:44:39;96192.25;;;11.80;65.03
50394;BME280;36308;46.312;25.288;2023-09-19T03:47:05;96191.72;;;11.78;65.22
50394;BME280;36308;46.312;25.288;2023-09-19T03:49:30;96216.06;;;11.93;65.46
50394;BME280;36308;46.312;25.288;2023-09-19T03:51:56;96209.63;;;11.94;65.40
50394;BME280;36308;46.312;25.288;2023-09-19T03:54:22;96194.72;;;11.86;65.58
50394;BME280;36308;46.312;25.288;2023-09-19T03:56:47;96186.06;;;11.79;65.90
50394;BME280;36308;46.312;25.288;2023-09-19T03:59:13;96212.31;;;11.99;65.45
50394;BME280;36308;46.312;25.288;2023-09-19T04:01:39;96195.88;;;11.96;65.54
50394;BME280;36308;46.312;25.288;2023-09-19T04:04:06;96202.09;;;12.01;65.83
50394;BME280;36308;46.312;25.288;2023-09-19T04:06:34;96219.66;;;12.09;65.98
50394;BME280;36308;46.312;25.288;2023-09-19T04:09:01;96203.19;;;12.00;65.85
50394;BME280;36308;46.312;25.288;2023-09-19T04:11:27;96191.84;;;11.98;66.25
50394;BME280;36308;46.312;25.288;2023-09-19T04:13:52;96209.66;;;12.09;66.23
50394;BME280;36308;46.312;25.288;2023-09-19T04:16:19;96216.16;;;12.13;66.09
50394;BME280;36308;46.312;25.288;2023-09-19T04:18:45;96206.72;;;12.06;66.41
50394;BME280;36308;46.312;25.288;2023-09-19T04:21:10;96188.06;;;11.99;65.94
50394;BME280;36308;46.312;25.288;2023-09-19T04:23:36;96205.38;;;12.13;66.20
50394;BME280;36308;46.312;25.288;2023-09-19T04:26:01;96199.19;;;12.13;66.35
50394;BME280;36308;46.312;25.288;2023-09-19T04:28:29;96206.47;;;12.18;65.97
50394;BME280;36308;46.312;25.288;2023-09-19T04:30:54;96197.03;;;12.15;66.00
50394;BME280;36308;46.312;25.288;2023-09-19T04:33:20;96210.56;;;12.20;66.00
50394;BME280;36308;46.312;25.288;2023-09-19T04:35:49;96199.78;;;12.20;66.57
50394;BME280;36308;46.312;25.288;2023-09-19T04:38:14;96194.38;;;12.20;66.75
50394;BME280;36308;46.312;25.288;2023-09-19T04:40:40;96192.75;;;12.19;66.56
50394;BME280;36308;46.312;25.288;2023-09-19T04:43:06;96198.97;;;12.30;66.86
50394;BME280;36308;46.312;25.288;2023-09-19T04:45:32;96197.91;;;12.36;66.82
50394;BME280;36308;46.312;25.288;2023-09-19T04:47:58;96195.78;;;12.38;66.75
50394;BME280;36308;46.312;25.288;2023-09-19T04:50:23;96176.34;;;12.31;67.04
50394;BME280;36308;46.312;25.288;2023-09-19T04:52:51;96183.63;;;12.41;66.86
50394;BME280;36308;46.312;25.288;2023-09-19T04:55:18;96177.72;;;12.44;66.69
50394;BME280;36308;46.312;25.288;2023-09-19T04:57:44;96176.38;;;12.46;66.83
50394;BME280;36308;46.312;25.288;2023-09-19T05:00:12;96177.47;;;12.50;67.04
50394;BME280;36308;46.312;25.288;2023-09-19T05:02:41;96180.72;;;12.63;67.24
50394;BME280;36308;46.312;25.288;2023-09-19T05:05:07;96165.63;;;12.57;66.84
50394;BME280;36308;46.312;25.288;2023-09-19T05:07:34;96170.50;;;12.65;67.14
50394;BME280;36308;46.312;25.288;2023-09-19T05:10:00;96165.63;;;12.67;67.11
50394;BME280;36308;46.312;25.288;2023-09-19T05:12:26;96176.72;;;12.81;66.90
50394;BME280;36308;46.312;25.288;2023-09-19T05:14:52;96175.66;;;12.87;67.10
50394;BME280;36308;46.312;25.288;2023-09-19T05:17:18;96146.50;;;12.79;66.83
50394;BME280;36308;46.312;25.288;2023-09-19T05:19:43;96161.34;;;12.91;67.02
50394;BME280;36308;46.312;25.288;2023-09-19T05:22:09;96159.47;;;12.92;66.92
50394;BME280;36308;46.312;25.288;2023-09-19T05:24:34;96140.56;;;12.87;66.88
50394;BME280;36308;46.312;25.288;2023-09-19T05:27:00;96150.00;;;12.94;66.80
50394;BME280;36308;46.312;25.288;2023-09-19T05:29:26;96158.91;;;13.10;66.72
50394;BME280;36308;46.312;25.288;2023-09-19T05:31:51;96140.31;;;13.04;66.64
50394;BME280;36308;46.312;25.288;2023-09-19T05:34:20;96148.94;;;13.11;66.83
50394;BME280;36308;46.312;25.288;2023-09-19T05:36:45;96162.44;;;13.26;66.82
50394;BME280;36308;46.312;25.288;2023-09-19T05:39:10;96166.22;;;13.36;66.67
50394;BME280;36308;46.312;25.288;2023-09-19T05:41:37;96126.78;;;13.24;66.85
50394;BME280;36308;46.312;25.288;2023-09-19T05:44:05;96137.06;;;13.38;66.59
50394;BME280;36308;46.312;25.288;2023-09-19T05:46:32;96161.06;;;13.54;66.60
50394;BME280;36308;46.312;25.288;2023-09-19T05:48:57;96144.59;;;13.56;66.39
50394;BME280;36308;46.312;25.288;2023-09-19T05:51:24;96133.22;;;13.59;66.46
50394;BME280;36308;46.312;25.288;2023-09-19T05:53:54;96153.72;;;13.75;66.50
50394;BME280;36308;46.312;25.288;2023-09-19T05:56:20;96142.63;;;13.82;66.73
50394;BME280;36308;46.312;25.288;2023-09-19T05:58:46;96126.16;;;13.79;66.78
50394;BME280;36308;46.312;25.288;2023-09-19T06:01:11;96124.22;;;13.94;66.89
50394;BME280;36308;46.312;25.288;2023-09-19T06:03:37;96130.38;;;14.05;66.46
50394;BME280;36308;46.312;25.288;2023-09-19T06:06:03;96126.56;;;14.11;66.39
50394;BME280;36308;46.312;25.288;2023-09-19T06:08:29;96131.63;;;14.28;66.88
50394;BME280;36308;46.312;25.288;2023-09-19T06:10:56;96128.59;;;14.35;66.73
50394;BME280;36308;46.312;25.288;2023-09-19T06:13:21;96119.38;;;14.41;66.60
50394;BME280;36308;46.312;25.288;2023-09-19T06:15:47;96114.97;;;14.55;66.63
50394;BME280;36308;46.312;25.288;2023-09-19T06:18:13;96139.19;;;14.76;66.95
50394;BME280;36308;46.312;25.288;2023-09-19T06:20:48;96134.19;;;14.93;66.64
50394;BME280;36308;46.312;25.288;2023-09-19T06:23:16;96129.41;;;15.14;66.58
50394;BME280;36308;46.312;25.288;2023-09-19T06:25:42;96115.50;;;15.26;65.73
50394;BME280;36308;46.312;25.288;2023-09-19T06:28:11;96145.53;;;15.59;65.33
50394;BME280;36308;46.312;25.288;2023-09-19T06:30:39;96139.41;;;15.78;64.99
50394;BME280;36308;46.312;25.288;2023-09-19T06:33:05;96134.59;;;15.93;64.08
50394;BME280;36308;46.312;25.288;2023-09-19T06:35:33;96147.69;;;16.10;63.44
50394;BME280;36308;46.312;25.288;2023-09-19T06:37:58;96148.59;;;16.25;63.05
50394;BME280;36308;46.312;25.288;2023-09-19T06:40:24;96148.97;;;16.37;62.90
50394;BME280;36308;46.312;25.288;2023-09-19T06:42:51;96152.06;;;16.49;62.73
50394;BME280;36308;46.312;25.288;2023-09-19T06:45:18;96135.13;;;16.57;62.09
50394;BME280;36308;46.312;25.288;2023-09-19T06:47:48;96136.28;;;16.70;61.63
50394;BME280;36308;46.312;25.288;2023-09-19T06:50:18;96133.16;;;16.82;61.43
50394;BME280;36308;46.312;25.288;2023-09-19T06:52:45;96140.25;;;16.97;60.96
50394;BME280;36308;46.312;25.288;2023-09-19T06:55:16;96145.75;;;17.11;60.65
50394;BME280;36308;46.312;25.288;2023-09-19T06:57:44;96149.41;;;17.20;59.79
50394;BME280;36308;46.312;25.288;2023-09-19T07:00:11;96149.22;;;17.30;59.16
50394;BME280;36308;46.312;25.288;2023-09-19T07:03:03;96153.69;;;17.40;58.85
50394;BME280;36308;46.312;25.288;2023-09-19T07:05:31;96141.41;;;17.43;58.73
50394;BME280;36308;46.312;25.288;2023-09-19T07:07:57;96149.91;;;17.55;58.68
50394;BME280;36308;46.312;25.288;2023-09-19T07:10:25;96141.75;;;17.55;58.50
50394;BME280;36308;46.312;25.288;2023-09-19T07:13:01;96153.16;;;17.71;58.44
50394;BME280;36308;46.312;25.288;2023-09-19T07:15:28;96155.69;;;17.81;58.26
50394;BME280;36308;46.312;25.288;2023-09-19T07:17:55;96149.06;;;17.87;58.04
50394;BME280;36308;46.312;25.288;2023-09-19T07:20:21;96148.38;;;17.95;57.80
50394;BME280;36308;46.312;25.288;2023-09-19T07:22:48;96149.56;;;18.03;57.77
50394;BME280;36308;46.312;25.288;2023-09-19T07:25:15;96145.34;;;18.11;57.53
50394;BME280;36308;46.312;25.288;2023-09-19T07:27:41;96136.75;;;18.17;57.29
50394;BME280;36308;46.312;25.288;2023-09-19T07:30:07;96142.63;;;18.25;56.96
50394;BME280;36308;46.312;25.288;2023-09-19T07:32:34;96131.59;;;18.30;56.77
50394;BME280;36308;46.312;25.288;2023-09-19T07:35:02;96140.97;;;18.37;56.65
50394;BME280;36308;46.312;25.288;2023-09-19T07:37:29;96138.47;;;18.41;56.66
50394;BME280;36308;46.312;25.288;2023-09-19T07:39:56;96140.25;;;18.46;56.38
50394;BME280;36308;46.312;25.288;2023-09-19T07:42:22;96146.91;;;18.53;56.32
50394;BME280;36308;46.312;25.288;2023-09-19T07:44:47;96144.56;;;18.61;56.21
50394;BME280;36308;46.312;25.288;2023-09-19T07:47:16;96154.53;;;18.65;56.05
50394;BME280;36308;46.312;25.288;2023-09-19T07:49:41;96160.66;;;18.71;55.82
50394;BME280;36308;46.312;25.288;2023-09-19T07:52:09;96151.28;;;18.77;55.60
50394;BME280;36308;46.312;25.288;2023-09-19T07:54:36;96153.91;;;18.82;55.62
50394;BME280;36308;46.312;25.288;2023-09-19T07:57:02;96157.31;;;18.88;55.47
50394;BME280;36308;46.312;25.288;2023-09-19T07:59:28;96145.19;;;18.94;55.44
50394;BME280;36308;46.312;25.288;2023-09-19T08:01:53;96154.84;;;19.00;55.49
50394;BME280;36308;46.312;25.288;2023-09-19T08:04:19;96139.50;;;19.04;55.35
50394;BME280;36308;46.312;25.288;2023-09-19T08:06:45;96149.97;;;19.11;55.12
50394;BME280;36308;46.312;25.288;2023-09-19T08:09:11;96151.94;;;19.19;54.96
50394;BME280;36308;46.312;25.288;2023-09-19T08:11:37;96152.94;;;19.23;55.11
50394;BME280;36308;46.312;25.288;2023-09-19T08:14:04;96161.50;;;19.30;54.92
50394;BME280;36308;46.312;25.288;2023-09-19T08:16:32;96152.69;;;19.33;55.04
50394;BME280;36308;46.312;25.288;2023-09-19T08:18:58;96150.84;;;19.43;54.88
50394;BME280;36308;46.312;25.288;2023-09-19T08:21:24;96140.59;;;19.48;55.05
50394;BME280;36308;46.312;25.288;2023-09-19T08:26:35;96146.28;;;19.61;55.13
50394;BME280;36308;46.312;25.288;2023-09-19T08:29:03;96144.72;;;19.68;55.18
50394;BME280;36308;46.312;25.288;2023-09-19T08:31:30;96137.53;;;19.72;54.82
50394;BME280;36308;46.312;25.288;2023-09-19T08:33:56;96136.00;;;19.80;54.87
50394;BME280;36308;46.312;25.288;2023-09-19T08:36:21;96133.59;;;19.87;54.95
50394;BME280;36308;46.312;25.288;2023-09-19T08:38:47;96125.59;;;19.91;54.66
50394;BME280;36308;46.312;25.288;2023-09-19T08:41:17;96143.94;;;19.99;54.39
50394;BME280;36308;46.312;25.288;2023-09-19T08:43:42;96136.72;;;20.03;54.11
50394;BME280;36308;46.312;25.288;2023-09-19T08:46:13;96136.56;;;20.08;53.84
50394;BME280;36308;46.312;25.288;2023-09-19T08:48:58;96138.34;;;20.13;53.52
50394;BME280;36308;46.312;25.288;2023-09-19T08:51:34;96133.53;;;20.18;53.34
50394;BME280;36308;46.312;25.288;2023-09-19T08:54:08;96135.31;;;20.23;53.29
50394;BME280;36308;46.312;25.288;2023-09-19T08:56:38;96128.94;;;20.28;53.03
50394;BME280;36308;46.312;25.288;2023-09-19T08:59:06;96127.66;;;20.34;53.13
50394;BME280;36308;46.312;25.288;2023-09-19T09:01:35;96138.41;;;20.39;52.90
50394;BME280;36308;46.312;25.288;2023-09-19T09:04:02;96125.25;;;20.41;52.91
50394;BME280;36308;46.312;25.288;2023-09-19T09:06:29;96134.91;;;20.47;53.01
50394;BME280;36308;46.312;25.288;2023-09-19T09:08:55;96132.03;;;20.52;52.96
50394;BME280;36308;46.312;25.288;2023-09-19T09:11:21;96136.53;;;20.57;52.86
50394;BME280;36308;46.312;25.288;2023-09-19T09:13:50;96138.63;;;20.60;52.69
50394;BME280;36308;46.312;25.288;2023-09-19T09:16:15;96142.50;;;20.68;52.78
50394;BME280;36308;46.312;25.288;2023-09-19T09:18:45;96139.28;;;20.74;52.68
50394;BME280;36308;46.312;25.288;2023-09-19T09:21:11;96142.69;;;20.80;52.50
50394;BME280;36308;46.312;25.288;2023-09-19T09:23:37;96143.66;;;20.84;52.12
50394;BME280;36308;46.312;25.288;2023-09-19T09:26:04;96148.94;;;20.89;51.97
50394;BME280;36308;46.312;25.288;2023-09-19T09:28:33;96158.44;;;21.01;51.77
50394;BME280;36308;46.312;25.288;2023-09-19T09:31:01;96154.91;;;21.09;51.45
50394;BME280;36308;46.312;25.288;2023-09-19T09:33:38;96141.06;;;21.14;51.36
50394;BME280;36308;46.312;25.288;2023-09-19T09:36:05;96155.53;;;21.23;51.12
50394;BME280;36308;46.312;25.288;2023-09-19T09:38:47;96156.81;;;21.34;50.81
50394;BME280;36308;46.312;25.288;2023-09-19T09:41:36;96157.44;;;21.40;50.10
50394;BME280;36308;46.312;25.288;2023-09-19T09:44:16;96164.53;;;21.50;50.08
50394;BME280;36308;46.312;25.288;2023-09-19T09:46:49;96159.38;;;21.57;49.66
50394;BME280;36308;46.312;25.288;2023-09-19T09:49:22;96165.13;;;21.64;49.57
50394;BME280;36308;46.312;25.288;2023-09-19T09:52:02;96172.53;;;21.72;49.34
50394;BME280;36308;46.312;25.288;2023-09-19T09:54:59;96175.09;;;21.77;49.48
50394;BME280;36308;46.312;25.288;2023-09-19T09:57:34;96167.66;;;21.87;49.53
50394;BME280;36308;46.312;25.288;2023-09-19T10:00:00;96179.03;;;21.97;49.45
50394;BME280;36308;46.312;25.288;2023-09-19T10:02:38;96182.56;;;22.07;49.14
50394;BME280;36308;46.312;25.288;2023-09-19T10:05:21;96178.84;;;22.11;48.78
50394;BME280;36308;46.312;25.288;2023-09-19T10:07:52;96184.63;;;22.18;48.50
50394;BME280;36308;46.312;25.288;2023-09-19T10:10:41;96177.03;;;22.24;48.06
50394;BME280;36308;46.312;25.288;2023-09-19T10:13:07;96162.53;;;22.24;48.17
50394;BME280;36308;46.312;25.288;2023-09-19T10:15:38;96179.56;;;22.38;47.80
50394;BME280;36308;46.312;25.288;2023-09-19T10:18:06;96183.72;;;22.44;47.67
50394;BME280;36308;46.312;25.288;2023-09-19T10:20:44;96181.25;;;22.51;47.58
50394;BME280;36308;46.312;25.288;2023-09-19T10:23:11;96187.34;;;22.57;47.57
50394;BME280;36308;46.312;25.288;2023-09-19T10:25:43;96197.78;;;22.64;47.31
50394;BME280;36308;46.312;25.288;2023-09-19T10:28:14;96193.72;;;22.70;47.16
50394;BME280;36308;46.312;25.288;2023-09-19T10:30:44;96193.72;;;22.70;46.87
50394;BME280;36308;46.312;25.288;2023-09-19T10:33:14;96203.81;;;22.78;46.83
50394;BME280;36308;46.312;25.288;2023-09-19T10:35:49;96191.44;;;22.72;46.25
50394;BME280;36308;46.312;25.288;2023-09-19T10:38:23;96208.78;;;22.85;46.02
50394;BME280;36308;46.312;25.288;2023-09-19T10:40:50;96210.72;;;22.84;46.17
50394;BME280;36308;46.312;25.288;2023-09-19T10:43:18;96202.81;;;22.83;46.40
50394;BME280;36308;46.312;25.288;2023-09-19T10:45:45;96185.97;;;22.72;46.47
50394;BME280;36308;46.312;25.288;2023-09-19T10:48:17;96209.13;;;22.83;46.25
50394;BME280;36308;46.312;25.288;2023-09-19T10:53:40;96209.13;;;22.83;46.26
50394;BME280;36308;46.312;25.288;2023-09-19T10:56:08;96200.59;;;22.76;46.39
50394;BME280;36308;46.312;25.288;2023-09-19T10:58:43;96211.41;;;22.81;46.04
50394;BME280;36308;46.312;25.288;2023-09-19T11:01:11;96211.41;;;22.81;46.42
50394;BME280;36308;46.312;25.288;2023-09-19T11:03:44;96197.88;;;22.76;46.61
50394;BME280;36308;46.312;25.288;2023-09-19T11:09:01;96222.63;;;22.88;46.89
50394;BME280;36308;46.312;25.288;2023-09-19T11:11:48;96207.44;;;22.91;47.17
50394;BME280;36308;46.312;25.288;2023-09-19T11:30:37;96223.72;;;22.96;47.48
50394;BME280;36308;46.312;25.288;2023-09-19T11:33:26;96219.56;;;22.90;47.52
50394;BME280;36308;46.312;25.288;2023-09-19T11:36:10;96219.25;;;22.83;47.50
50394;BME280;36308;46.312;25.288;2023-09-19T11:41:39;96226.44;;;22.75;48.00
50394;BME280;36308;46.312;25.288;2023-09-19T11:46:33;96231.13;;;22.66;48.19
50394;BME280;36308;46.312;25.288;2023-09-19T11:49:09;96229.41;;;22.61;48.34
50394;BME280;36308;46.312;25.288;2023-09-19T11:51:44;96229.91;;;22.54;48.49
50394;BME280;36308;46.312;25.288;2023-09-19T11:54:11;96234.28;;;22.47;48.79
50394;BME280;36308;46.312;25.288;2023-09-19T11:56:52;96236.41;;;22.41;49.19
50394;BME280;36308;46.312;25.288;2023-09-19T11:59:21;96242.56;;;22.38;49.65
50394;BME280;36308;46.312;25.288;2023-09-19T12:01:53;96249.81;;;22.34;50.46
50394;BME280;36308;46.312;25.288;2023-09-19T12:04:34;96253.56;;;22.29;51.13
50394;BME280;36308;46.312;25.288;2023-09-19T12:07:04;96249.06;;;22.25;51.65
50394;BME280;36308;46.312;25.288;2023-09-19T12:09:31;96254.19;;;22.17;52.20
50394;BME280;36308;46.312;25.288;2023-09-19T12:11:57;96248.44;;;22.10;52.81
50394;BME280;36308;46.312;25.288;2023-09-19T12:14:24;96247.31;;;22.03;53.26
50394;BME280;36308;46.312;25.288;2023-09-19T12:16:57;96250.88;;;21.94;53.79
50394;BME280;36308;46.312;25.288;2023-09-19T12:19:24;96241.22;;;21.88;54.21
50394;BME280;36308;46.312;25.288;2023-09-19T12:22:01;96246.06;;;21.83;54.23
50394;BME280;36308;46.312;25.288;2023-09-19T12:24:30;96246.25;;;21.77;54.58
50394;BME280;36308;46.312;25.288;2023-09-19T12:27:06;96243.66;;;21.72;55.33
50394;BME280;36308;46.312;25.288;2023-09-19T12:29:45;96237.22;;;21.68;55.63
50394;BME280;36308;46.312;25.288;2023-09-19T12:32:11;96236.28;;;21.64;55.78
50394;BME280;36308;46.312;25.288;2023-09-19T12:34:38;96235.31;;;21.60;56.29
50394;BME280;36308;46.312;25.288;2023-09-19T12:37:15;96228.88;;;21.56;56.27
50394;BME280;36308;46.312;25.288;2023-09-19T12:39:46;96232.59;;;21.51;56.67
50394;BME280;36308;46.312;25.288;2023-09-19T12:42:21;96232.75;;;21.46;56.83
50394;BME280;36308;46.312;25.288;2023-09-19T12:44:50;96228.25;;;21.42;57.08
50394;BME280;36308;46.312;25.288;2023-09-19T12:47:21;96231.13;;;21.36;57.50
50394;BME280;36308;46.312;25.288;2023-09-19T12:50:05;96233.22;;;21.31;57.60
50394;BME280;36308;46.312;25.288;2023-09-19T12:52:38;96229.84;;;21.25;57.81
50394;BME280;36308;46.312;25.288;2023-09-19T12:55:04;96225.66;;;21.19;57.86
50394;BME280;36308;46.312;25.288;2023-09-19T12:57:33;96219.84;;;21.12;58.05
50394;BME280;36308;46.312;25.288;2023-09-19T13:00:03;96221.94;;;21.06;58.17
50394;BME280;36308;46.312;25.288;2023-09-19T13:02:32;96224.03;;;21.01;58.36
50394;BME280;36308;46.312;25.288;2023-09-19T13:04:58;96213.59;;;20.94;58.53
50394;BME280;36308;46.312;25.288;2023-09-19T13:07:44;96217.91;;;20.86;58.99
50394;BME280;36308;46.312;25.288;2023-09-19T13:10:14;96216.94;;;20.82;59.20
50394;BME280;36308;46.312;25.288;2023-09-19T13:12:42;96199.22;;;20.71;59.16
50394;BME280;36308;46.312;25.288;2023-09-19T13:15:13;96205.81;;;20.70;59.32
50394;BME280;36308;46.312;25.288;2023-09-19T13:17:44;96213.66;;;20.63;59.79
50394;BME280;36308;46.312;25.288;2023-09-19T13:20:26;96213.97;;;20.52;60.07
50394;BME280;36308;46.312;25.288;2023-09-19T13:22:57;96206.56;;;20.44;60.30
50394;BME280;36308;46.312;25.288;2023-09-19T13:25:33;96201.53;;;20.37;60.67
50394;BME280;36308;46.312;25.288;2023-09-19T13:28:00;96195.91;;;20.34;60.83
50394;BME280;36308;46.312;25.288;2023-09-19T13:30:29;96182.69;;;20.18;60.57
50394;BME280;36308;46.312;25.288;2023-09-19T13:33:10;96196.19;;;20.24;61.06
50394;BME280;36308;46.312;25.288;2023-09-19T13:35:37;96186.06;;;20.24;61.16
50394;BME280;36308;46.312;25.288;2023-09-19T13:38:05;96196.19;;;20.24;60.72
50394;BME280;36308;46.312;25.288;2023-09-19T13:40:32;96203.91;;;20.22;61.08
50394;BME280;36308;46.312;25.288;2023-09-19T13:43:00;96172.22;;;20.12;60.96
50394;BME280;36308;46.312;25.288;2023-09-19T13:45:26;96174.00;;;20.16;61.17
50394;BME280;36308;46.312;25.288;2023-09-19T13:47:52;96160.50;;;20.11;60.82
50394;BME280;36308;46.312;25.288;2023-09-19T13:50:19;96166.59;;;20.17;61.06
50394;BME280;36308;46.312;25.288;2023-09-19T13:52:52;96169.50;;;20.21;61.08
50394;BME280;36308;46.312;25.288;2023-09-19T13:55:19;96165.03;;;20.25;61.15